Time;durP1;ratioP1;P1;durP2;ratioP2;P2;SDS_P1;SDS_P2;PMS_P1;PMS_P2;Temp;Humidity;BMP_temperature;BMP_pressure;BME280_temperature;BME280_humidity;BME280_pressure;Samples;Min_cycle;Max_cycle;Signal;HPM_P1;HPM_P2
2023/08/21 00:01:00;;;;;;;;;;;16.80;71.90;;;;;;4132334;28;19919;-85
2023/08/21 00:03:22;;;;;;;;;;;16.70;71.80;;;;;;4118721;28;19918;-84
2023/08/21 00:05:42;;;;;;;;;;;16.70;71.90;;;;;;4120080;28;19933;-84
2023/08/21 00:07:46;;;;;;;;;;;16.60;72.00;;;;;;4106776;28;20380;-85
2023/08/21 00:09:47;;;;;;;;;;;16.70;71.90;;;;;;4123579;28;20439;-84
2023/08/21 00:11:47;;;;;;;;;;;16.60;72.00;;;;;;4116752;28;20033;-84
2023/08/21 00:13:49;;;;;;;;;;;16.60;71.80;;;;;;4117952;28;19952;-84
2023/08/21 00:15:49;;;;;;;;;;;16.50;72.20;;;;;;4110698;28;19925;-84
2023/08/21 00:17:50;;;;;;;;;;;16.60;72.20;;;;;;4114618;28;19922;-85
2023/08/21 00:19:51;;;;;;;;;;;16.50;72.00;;;;;;4132040;28;19918;-86
2023/08/21 00:21:51;;;;;;;;;;;16.50;72.20;;;;;;4110651;28;19972;-84
2023/08/21 00:23:52;;;;;;;;;;;16.60;72.80;;;;;;4121479;28;19972;-84
2023/08/21 00:25:52;;;;;;;;;;;16.60;72.60;;;;;;4135680;28;19917;-84
2023/08/21 00:27:53;;;;;;;;;;;16.50;72.50;;;;;;4124688;28;19943;-85
2023/08/21 00:29:54;;;;;;;;;;;16.50;72.30;;;;;;4113154;28;20013;-84
2023/08/21 00:32:06;;;;;;;;;;;16.50;72.50;;;;;;4116762;28;20049;-84
2023/08/21 00:34:16;;;;;;;;;;;16.40;72.50;;;;;;4120502;28;19953;-84
2023/08/21 00:36:37;;;;;;;;;;;16.40;72.30;;;;;;4133067;28;19917;-85
2023/08/21 00:38:57;;;;;;;;;;;16.50;72.60;;;;;;4132656;28;19984;-85
2023/08/21 00:41:20;;;;;;;;;;;16.40;73.30;;;;;;4121904;28;20380;-84
2023/08/21 00:43:44;;;;;;;;;;;16.30;73.10;;;;;;4146792;23;19929;-83
2023/08/21 00:46:05;;;;;;;;;;;16.30;73.20;;;;;;4153085;28;19921;-82
2023/08/21 00:48:26;;;;;;;;;;;16.40;72.90;;;;;;4150477;28;19921;-83
2023/08/21 00:50:46;;;;;;;;;;;16.30;72.50;;;;;;4154561;28;19917;-82
2023/08/21 00:53:07;;;;;;;;;;;16.30;72.40;;;;;;4153933;28;19923;-82
2023/08/21 00:55:28;;;;;;;;;;;16.30;72.50;;;;;;4153410;28;20058;-82
2023/08/21 00:57:48;;;;;;;;;;;16.20;72.50;;;;;;4156215;28;20016;-82
2023/08/21 01:00:12;;;;;;;;;;;16.20;72.60;;;;;;4154930;28;19924;-83
2023/08/21 01:02:33;;;;;;;;;;;16.20;73.10;;;;;;4155012;28;20000;-82
2023/08/21 01:04:53;;;;;;;;;;;16.20;73.60;;;;;;4151592;28;19968;-84
2023/08/21 01:07:14;;;;;;;;;;;16.20;73.90;;;;;;4152427;28;19924;-83
2023/08/21 01:09:31;;;;;;;;;;;16.20;73.70;;;;;;4121223;28;20167;-82
2023/08/21 01:11:41;;;;;;;;;;;16.20;73.70;;;;;;4154815;28;19921;-83
2023/08/21 01:13:41;;;;;;;;;;;16.10;73.90;;;;;;4141573;28;19994;-82
2023/08/21 01:15:42;;;;;;;;;;;16.20;73.50;;;;;;4152583;28;20030;-82
2023/08/21 01:17:44;;;;;;;;;;;16.10;73.50;;;;;;4154364;28;20016;-82
2023/08/21 01:19:46;;;;;;;;;;;16.10;73.50;;;;;;4149860;28;19914;-82
2023/08/21 01:21:47;;;;;;;;;;;16.10;73.50;;;;;;4154499;28;20000;-82
2023/08/21 01:23:47;;;;;;;;;;;16.10;73.60;;;;;;4155770;28;19928;-82
2023/08/21 01:25:48;;;;;;;;;;;16.10;73.80;;;;;;4154823;28;20016;-82
2023/08/21 01:27:50;;;;;;;;;;;16.10;73.90;;;;;;4150902;28;20103;-82
2023/08/21 01:29:51;;;;;;;;;;;16.10;73.90;;;;;;4133433;28;20017;-82
2023/08/21 01:32:07;;;;;;;;;;;16.00;73.80;;;;;;4138173;28;19918;-84
2023/08/21 01:34:11;;;;;;;;;;;16.00;74.00;;;;;;4139627;28;19999;-83
2023/08/21 01:36:11;;;;;;;;;;;16.00;74.00;;;;;;4134536;28;19918;-83
2023/08/21 01:38:12;;;;;;;;;;;16.10;73.90;;;;;;4149228;28;20056;-83
2023/08/21 01:40:19;;;;;;;;;;;16.00;73.90;;;;;;4118432;28;19977;-82
2023/08/21 01:42:21;;;;;;;;;;;16.00;74.10;;;;;;4133001;28;19922;-82
2023/08/21 01:44:45;;;;;;;;;;;15.90;73.70;;;;;;4154076;28;20528;-83
2023/08/21 01:46:49;;;;;;;;;;;16.00;73.90;;;;;;4135896;28;19973;-83
2023/08/21 01:49:09;;;;;;;;;;;15.80;73.90;;;;;;4138041;28;20407;-82
2023/08/21 01:51:30;;;;;;;;;;;15.90;74.20;;;;;;4146346;28;20531;-82
2023/08/21 01:53:50;;;;;;;;;;;15.90;74.10;;;;;;4146776;28;20489;-82
2023/08/21 01:56:11;;;;;;;;;;;15.90;74.20;;;;;;4151912;28;19917;-82
2023/08/21 01:58:31;;;;;;;;;;;15.80;74.40;;;;;;4150418;28;19917;-82
2023/08/21 02:00:52;;;;;;;;;;;15.70;74.20;;;;;;4152218;28;19917;-83
2023/08/21 02:03:13;;;;;;;;;;;15.80;74.10;;;;;;4147599;28;19914;-83
2023/08/21 02:05:38;;;;;;;;;;;15.70;74.00;;;;;;4151456;28;19975;-83
2023/08/21 02:07:59;;;;;;;;;;;15.70;74.00;;;;;;4152299;28;20372;-82
2023/08/21 02:10:20;;;;;;;;;;;15.60;74.00;;;;;;4153173;28;19921;-82
2023/08/21 02:12:40;;;;;;;;;;;15.60;74.40;;;;;;4155416;28;19917;-83
2023/08/21 02:14:41;;;;;;;;;;;15.70;74.30;;;;;;4153833;28;19920;-82
2023/08/21 02:16:42;;;;;;;;;;;15.60;74.30;;;;;;4137297;28;19964;-82
2023/08/21 02:18:42;;;;;;;;;;;15.60;74.30;;;;;;4151016;28;19924;-82
2023/08/21 02:20:43;;;;;;;;;;;15.60;74.30;;;;;;4152812;28;20393;-82
2023/08/21 02:23:06;;;;;;;;;;;15.50;74.40;;;;;;4153641;28;20465;-82
2023/08/21 02:25:27;;;;;;;;;;;15.60;74.40;;;;;;4150582;28;19917;-83
2023/08/21 02:27:27;;;;;;;;;;;15.50;74.40;;;;;;4135338;28;20185;-82
2023/08/21 02:29:28;;;;;;;;;;;15.50;74.30;;;;;;4171081;28;19945;-82
2023/08/21 02:31:49;;;;;;;;;;;15.50;74.30;;;;;;4160940;28;19913;-82
2023/08/21 02:33:52;;;;;;;;;;;15.50;74.30;;;;;;4168551;28;20453;-82
2023/08/21 02:36:13;;;;;;;;;;;15.60;74.40;;;;;;4164667;28;19949;-83
2023/08/21 02:38:33;;;;;;;;;;;15.50;74.30;;;;;;4157026;28;19925;-82
2023/08/21 02:40:54;;;;;;;;;;;15.40;74.30;;;;;;4153744;28;19960;-82
2023/08/21 02:43:16;;;;;;;;;;;15.40;74.40;;;;;;4153206;28;19918;-82
2023/08/21 02:45:36;;;;;;;;;;;15.50;74.50;;;;;;4149684;28;20714;-82
2023/08/21 02:47:57;;;;;;;;;;;15.40;74.50;;;;;;4153403;28;20435;-82
2023/08/21 02:50:17;;;;;;;;;;;15.40;74.30;;;;;;4151151;28;20410;-83
2023/08/21 02:52:38;;;;;;;;;;;15.40;74.40;;;;;;4153340;28;20474;-83
2023/08/21 02:54:58;;;;;;;;;;;15.40;74.50;;;;;;4148585;28;20507;-82
2023/08/21 02:57:19;;;;;;;;;;;15.40;74.60;;;;;;4138423;28;21113;-82
2023/08/21 02:59:40;;;;;;;;;;;15.40;75.00;;;;;;4150557;28;20642;-83
2023/08/21 03:02:00;;;;;;;;;;;15.30;74.90;;;;;;4153328;28;20375;-82
2023/08/21 03:04:21;;;;;;;;;;;15.30;75.20;;;;;;4152186;28;20429;-82
2023/08/21 03:06:41;;;;;;;;;;;15.40;75.20;;;;;;4153128;28;20483;-82
2023/08/21 03:08:53;;;;;;;;;;;15.30;75.30;;;;;;4154786;28;19917;-83
2023/08/21 03:10:53;;;;;;;;;;;15.30;75.40;;;;;;4136130;28;19963;-82
2023/08/21 03:12:54;;;;;;;;;;;15.30;75.50;;;;;;4150740;28;20618;-82
2023/08/21 03:14:56;;;;;;;;;;;15.30;75.20;;;;;;4131685;28;20319;-83
2023/08/21 03:16:56;;;;;;;;;;;15.20;75.10;;;;;;4151463;28;19913;-83
2023/08/21 03:18:58;;;;;;;;;;;15.30;75.30;;;;;;4151318;28;19984;-82
2023/08/21 03:20:59;;;;;;;;;;;15.20;75.60;;;;;;4152262;28;19917;-82
2023/08/21 03:22:59;;;;;;;;;;;15.20;75.90;;;;;;4154273;28;19913;-82
2023/08/21 03:25:00;;;;;;;;;;;15.20;75.90;;;;;;4137118;28;19921;-82
2023/08/21 03:27:03;;;;;;;;;;;15.20;75.80;;;;;;4153169;28;19924;-82
2023/08/21 03:29:23;;;;;;;;;;;15.10;75.70;;;;;;4152664;28;20431;-82
2023/08/21 03:31:24;;;;;;;;;;;15.20;75.80;;;;;;4153894;28;19959;-82
2023/08/21 03:33:44;;;;;;;;;;;15.10;75.70;;;;;;4138016;28;19937;-82
2023/08/21 03:36:06;;;;;;;;;;;15.10;76.10;;;;;;4153249;28;20379;-82
2023/08/21 03:38:27;;;;;;;;;;;15.10;76.20;;;;;;4155083;28;20480;-82
2023/08/21 03:40:47;;;;;;;;;;;15.00;76.30;;;;;;4140018;28;22311;-83
2023/08/21 03:43:08;;;;;;;;;;;15.00;76.20;;;;;;4150125;28;20483;-82
2023/08/21 03:45:28;;;;;;;;;;;15.00;76.20;;;;;;4151995;28;20602;-82
2023/08/21 03:47:49;;;;;;;;;;;15.00;76.30;;;;;;4153654;28;20347;-82
2023/08/21 03:50:09;;;;;;;;;;;14.90;76.00;;;;;;4149136;28;20491;-83
2023/08/21 03:52:30;;;;;;;;;;;14.90;75.80;;;;;;4151560;28;20528;-83
2023/08/21 03:54:50;;;;;;;;;;;14.90;75.80;;;;;;4149782;28;20366;-82
2023/08/21 03:57:11;;;;;;;;;;;14.90;75.90;;;;;;4152419;28;20383;-82
2023/08/21 03:59:31;;;;;;;;;;;14.90;76.20;;;;;;4139669;28;20631;-82
2023/08/21 04:01:52;;;;;;;;;;;14.90;76.40;;;;;;4149494;28;20334;-82
2023/08/21 04:03:53;;;;;;;;;;;14.80;76.30;;;;;;4137078;28;19917;-82
2023/08/21 04:05:54;;;;;;;;;;;14.90;76.30;;;;;;4151587;28;20003;-82
2023/08/21 04:07:56;;;;;;;;;;;14.80;76.20;;;;;;4131997;28;20476;-82
2023/08/21 04:09:57;;;;;;;;;;;14.80;76.20;;;;;;4151562;28;21196;-84
2023/08/21 04:12:17;;;;;;;;;;;14.90;76.10;;;;;;4152027;28;20330;-83
2023/08/21 04:14:18;;;;;;;;;;;14.80;75.90;;;;;;4151574;28;20007;-83
2023/08/21 04:16:21;;;;;;;;;;;14.80;76.40;;;;;;4131540;28;19913;-82
2023/08/21 04:18:42;;;;;;;;;;;14.90;76.90;;;;;;4136072;28;20471;-82
2023/08/21 04:21:02;;;;;;;;;;;14.80;76.90;;;;;;4139751;28;20324;-82
2023/08/21 04:23:23;;;;;;;;;;;14.80;76.60;;;;;;4154290;28;20267;-83
2023/08/21 04:25:43;;;;;;;;;;;14.90;76.60;;;;;;4148332;28;19970;-84
2023/08/21 04:28:04;;;;;;;;;;;14.90;76.70;;;;;;4153027;28;20319;-83
2023/08/21 04:30:25;;;;;;;;;;;14.80;76.70;;;;;;4151503;28;21738;-83
2023/08/21 04:32:45;;;;;;;;;;;14.90;76.90;;;;;;4148763;28;20299;-83
2023/08/21 04:35:08;;;;;;;;;;;14.80;77.00;;;;;;4140954;28;20334;-82
2023/08/21 04:37:29;;;;;;;;;;;14.90;77.40;;;;;;4151579;28;20396;-84
2023/08/21 04:39:55;;;;;;;;;;;15.00;77.40;;;;;;4148548;28;20802;-83
2023/08/21 04:41:56;;;;;;;;;;;14.90;77.60;;;;;;4150175;28;20365;-82
2023/08/21 04:43:56;;;;;;;;;;;14.90;77.50;;;;;;4133970;28;19917;-82
2023/08/21 04:45:57;;;;;;;;;;;14.90;77.80;;;;;;4136272;28;19921;-83
2023/08/21 04:47:57;;;;;;;;;;;15.10;77.60;;;;;;4134831;28;19917;-83
2023/08/21 04:49:58;;;;;;;;;;;15.00;77.60;;;;;;4127833;28;19979;-83
2023/08/21 04:51:58;;;;;;;;;;;15.10;77.90;;;;;;4132023;28;19918;-83
2023/08/21 04:53:59;;;;;;;;;;;15.00;77.80;;;;;;4132673;28;19918;-83
2023/08/21 04:56:00;;;;;;;;;;;15.10;78.00;;;;;;4116053;28;19929;-82
2023/08/21 04:58:04;;;;;;;;;;;15.00;77.80;;;;;;4145322;28;19947;-83
2023/08/21 05:00:24;;;;;;;;;;;15.10;77.80;;;;;;4146696;28;20303;-83
2023/08/21 05:02:45;;;;;;;;;;;15.20;77.90;;;;;;4148706;28;19917;-84
2023/08/21 05:05:06;;;;;;;;;;;15.20;78.10;;;;;;4150359;28;20434;-83
2023/08/21 05:07:27;;;;;;;;;;;15.20;78.00;;;;;;4150749;28;20279;-83
2023/08/21 05:09:47;;;;;;;;;;;15.20;77.90;;;;;;4153740;28;19928;-82
2023/08/21 05:11:49;;;;;;;;;;;15.20;77.90;;;;;;4153263;28;19925;-82
2023/08/21 05:14:09;;;;;;;;;;;15.30;78.30;;;;;;4152370;28;19948;-83
2023/08/21 05:16:12;;;;;;;;;;;15.30;78.20;;;;;;4132799;28;20318;-83
2023/08/21 05:18:32;;;;;;;;;;;15.40;78.50;;;;;;4133597;28;21727;-84
2023/08/21 05:20:53;;;;;;;;;;;15.50;79.20;;;;;;4164750;28;19917;-83
2023/08/21 05:23:14;;;;;;;;;;;15.50;79.30;;;;;;4168455;28;20064;-82
2023/08/21 05:25:35;;;;;;;;;;;15.50;79.70;;;;;;4162020;28;19917;-84
2023/08/21 05:27:55;;;;;;;;;;;15.50;79.20;;;;;;4155953;28;20298;-82
2023/08/21 05:30:16;;;;;;;;;;;15.50;79.40;;;;;;4156273;28;19935;-83
2023/08/21 05:32:36;;;;;;;;;;;15.60;79.20;;;;;;4152061;28;20439;-83
2023/08/21 05:34:57;;;;;;;;;;;15.70;79.60;;;;;;4152909;28;20180;-83
2023/08/21 05:37:17;;;;;;;;;;;15.70;79.80;;;;;;4155583;28;19917;-82
2023/08/21 05:39:38;;;;;;;;;;;15.70;79.70;;;;;;4157102;28;19929;-83
2023/08/21 05:41:58;;;;;;;;;;;15.80;79.70;;;;;;4154384;28;20049;-84
2023/08/21 05:44:19;;;;;;;;;;;15.80;79.60;;;;;;4157399;28;19940;-84
2023/08/21 05:46:39;;;;;;;;;;;15.90;80.20;;;;;;4154580;28;19914;-83
2023/08/21 05:49:03;;;;;;;;;;;16.00;80.10;;;;;;4155369;28;19943;-83
2023/08/21 05:51:24;;;;;;;;;;;15.90;79.90;;;;;;4135576;28;19922;-86
2023/08/21 05:53:24;;;;;;;;;;;16.00;79.80;;;;;;4151013;28;19921;-84
2023/08/21 05:55:25;;;;;;;;;;;16.10;80.00;;;;;;4142917;28;19932;-83
2023/08/21 05:57:25;;;;;;;;;;;16.20;79.90;;;;;;4128442;28;19914;-84
2023/08/21 05:59:30;;;;;;;;;;;16.20;80.10;;;;;;4149930;28;20467;-83
2023/08/21 06:01:31;;;;;;;;;;;16.20;79.90;;;;;;4151569;28;19921;-83
2023/08/21 06:03:31;;;;;;;;;;;16.30;79.90;;;;;;4149955;28;19913;-83
2023/08/21 06:05:32;;;;;;;;;;;16.30;80.00;;;;;;4151342;28;20538;-84
2023/08/21 06:07:52;;;;;;;;;;;16.40;80.40;;;;;;4153185;28;20489;-83
2023/08/21 06:09:53;;;;;;;;;;;16.50;80.60;;;;;;4150169;28;19920;-84
2023/08/21 06:12:13;;;;;;;;;;;16.50;80.30;;;;;;4145796;28;20162;-83
2023/08/21 06:14:35;;;;;;;;;;;16.60;80.50;;;;;;4192049;23;19973;-84
2023/08/21 06:16:59;;;;;;;;;;;16.70;80.10;;;;;;4123358;28;19917;-83
2023/08/21 06:19:20;;;;;;;;;;;16.80;79.80;;;;;;4110742;28;19925;-85
2023/08/21 06:21:41;;;;;;;;;;;16.70;80.00;;;;;;4116108;28;20067;-83
2023/08/21 06:24:02;;;;;;;;;;;16.80;80.80;;;;;;4121757;28;19922;-83
2023/08/21 06:26:22;;;;;;;;;;;16.80;80.60;;;;;;4116678;28;19922;-84
2023/08/21 06:28:43;;;;;;;;;;;16.90;80.30;;;;;;4116060;28;19913;-83
2023/08/21 06:30:44;;;;;;;;;;;17.00;80.80;;;;;;4115036;28;20140;-84
2023/08/21 06:32:44;;;;;;;;;;;16.90;80.10;;;;;;4119550;28;19922;-83
2023/08/21 06:34:45;;;;;;;;;;;17.00;80.30;;;;;;4113142;28;19918;-84
2023/08/21 06:36:47;;;;;;;;;;;17.00;80.80;;;;;;4115659;28;19918;-84
2023/08/21 06:39:07;;;;;;;;;;;17.10;80.40;;;;;;4117810;28;19918;-84
2023/08/21 06:41:28;;;;;;;;;;;17.00;80.70;;;;;;4117335;28;20303;-84
2023/08/21 06:43:48;;;;;;;;;;;17.10;80.10;;;;;;4120781;28;19968;-83
2023/08/21 06:46:18;;;;;;;;;;;17.20;79.50;;;;;;4122804;28;19917;-83
2023/08/21 06:48:40;;;;;;;;;;;17.20;79.50;;;;;;4122740;28;19921;-84
2023/08/21 06:51:02;;;;;;;;;;;17.30;79.30;;;;;;4109891;28;20104;-83
2023/08/21 06:53:22;;;;;;;;;;;17.30;79.50;;;;;;4112529;28;20060;-83
2023/08/21 06:55:44;;;;;;;;;;;17.40;79.90;;;;;;4119133;28;20016;-84
2023/08/21 06:58:03;;;;;;;;;;;17.40;79.80;;;;;;4115359;28;19921;-83
2023/08/21 07:00:27;;;;;;;;;;;17.50;81.10;;;;;;4112646;28;19918;-84
2023/08/21 07:02:47;;;;;;;;;;;17.60;82.20;;;;;;4118705;28;20037;-83
2023/08/21 07:05:08;;;;;;;;;;;17.70;81.80;;;;;;4112533;28;19917;-83
2023/08/21 07:07:29;;;;;;;;;;;17.80;81.20;;;;;;4120857;28;19918;-83
2023/08/21 07:09:50;;;;;;;;;;;17.90;80.30;;;;;;4124189;28;19929;-82
2023/08/21 07:12:10;;;;;;;;;;;18.00;79.90;;;;;;4120766;28;19918;-82
2023/08/21 07:14:31;;;;;;;;;;;18.00;80.20;;;;;;4126405;28;19921;-82
2023/08/21 07:16:51;;;;;;;;;;;18.10;80.60;;;;;;4123039;28;19939;-82
2023/08/21 07:19:12;;;;;;;;;;;18.20;81.80;;;;;;4120551;28;19922;-83
2023/08/21 07:21:35;;;;;;;;;;;18.30;81.90;;;;;;4120864;28;19933;-82
2023/08/21 07:23:55;;;;;;;;;;;18.40;82.00;;;;;;4118222;28;19964;-83
2023/08/21 07:25:57;;;;;;;;;;;18.50;81.90;;;;;;4119312;28;19922;-83
2023/08/21 07:27:58;;;;;;;;;;;18.60;81.50;;;;;;4121474;28;19918;-83
2023/08/21 07:29:59;;;;;;;;;;;18.70;80.60;;;;;;4120802;28;20402;-83
2023/08/21 07:32:01;;;;;;;;;;;18.70;80.00;;;;;;4118649;28;19918;-83
2023/08/21 07:34:01;;;;;;;;;;;18.80;79.20;;;;;;4120028;28;19918;-83
2023/08/21 07:36:05;;;;;;;;;;;18.80;78.70;;;;;;4118266;28;19918;-82
2023/08/21 07:38:06;;;;;;;;;;;18.90;78.30;;;;;;4123009;28;19926;-82
2023/08/21 07:40:07;;;;;;;;;;;18.90;78.80;;;;;;4121635;28;19968;-82
2023/08/21 07:42:07;;;;;;;;;;;19.00;78.90;;;;;;4122690;28;20005;-82
2023/08/21 07:44:08;;;;;;;;;;;19.10;79.80;;;;;;4124317;28;20013;-82
2023/08/21 07:46:13;;;;;;;;;;;19.10;79.20;;;;;;4120176;28;19922;-83
2023/08/21 07:48:13;;;;;;;;;;;19.20;78.60;;;;;;4119355;28;19947;-83
2023/08/21 07:50:16;;;;;;;;;;;19.40;78.30;;;;;;4117765;28;19922;-83
2023/08/21 07:52:17;;;;;;;;;;;19.40;78.00;;;;;;4117119;28;19964;-82
2023/08/21 07:54:17;;;;;;;;;;;19.40;77.50;;;;;;4118787;28;20354;-84
2023/08/21 07:56:19;;;;;;;;;;;19.60;77.30;;;;;;4117096;28;20021;-83
2023/08/21 07:58:19;;;;;;;;;;;19.60;76.00;;;;;;4121355;28;20255;-82
2023/08/21 08:00:20;;;;;;;;;;;19.60;75.30;;;;;;4112809;28;19969;-83
2023/08/21 08:02:20;;;;;;;;;;;19.60;75.20;;;;;;4121276;28;19947;-83
2023/08/21 08:04:21;;;;;;;;;;;19.60;74.60;;;;;;4122535;28;19918;-83
2023/08/21 08:06:23;;;;;;;;;;;19.60;74.50;;;;;;4120071;28;19917;-83
2023/08/21 08:08:23;;;;;;;;;;;19.60;74.20;;;;;;4121630;28;19914;-83
2023/08/21 08:10:24;;;;;;;;;;;19.60;74.20;;;;;;4119819;28;20612;-83
2023/08/21 08:12:25;;;;;;;;;;;19.60;74.40;;;;;;4122466;28;19928;-83
2023/08/21 08:14:26;;;;;;;;;;;19.60;74.40;;;;;;4128356;28;19953;-83
2023/08/21 08:16:26;;;;;;;;;;;19.60;74.90;;;;;;4131083;28;20438;-83
2023/08/21 08:18:27;;;;;;;;;;;19.70;74.40;;;;;;4120212;28;20323;-82
2023/08/21 08:20:27;;;;;;;;;;;19.70;73.40;;;;;;4122057;28;20331;-82
2023/08/21 08:22:28;;;;;;;;;;;19.70;72.80;;;;;;4128446;28;19925;-83
2023/08/21 08:24:28;;;;;;;;;;;19.70;73.00;;;;;;4123629;28;19921;-84
2023/08/21 08:26:29;;;;;;;;;;;19.80;73.10;;;;;;4124286;28;19918;-84
2023/08/21 08:28:30;;;;;;;;;;;19.80;73.20;;;;;;4125111;28;19914;-84
2023/08/21 08:30:30;;;;;;;;;;;19.80;73.30;;;;;;4121763;28;19922;-84
2023/08/21 08:32:31;;;;;;;;;;;19.90;73.60;;;;;;4121550;28;19922;-83
2023/08/21 08:34:31;;;;;;;;;;;19.90;73.70;;;;;;4122413;28;20548;-84
2023/08/21 08:36:32;;;;;;;;;;;19.90;73.50;;;;;;4121989;28;20260;-83
2023/08/21 08:38:32;;;;;;;;;;;20.00;73.10;;;;;;4122413;28;20440;-83
2023/08/21 08:40:34;;;;;;;;;;;20.10;73.10;;;;;;4118406;28;19918;-83
2023/08/21 08:42:35;;;;;;;;;;;20.10;73.00;;;;;;4123380;28;19918;-83
2023/08/21 08:44:45;;;;;;;;;;;20.20;72.00;;;;;;4123186;28;20039;-83
2023/08/21 08:46:53;;;;;;;;;;;20.20;71.10;;;;;;4121093;28;19928;-83
2023/08/21 08:48:53;;;;;;;;;;;20.30;70.60;;;;;;4120240;28;19953;-84
2023/08/21 08:50:54;;;;;;;;;;;20.30;69.80;;;;;;4117958;28;19956;-84
2023/08/21 08:52:58;;;;;;;;;;;20.40;70.30;;;;;;4132231;28;20070;-83
2023/08/21 08:54:58;;;;;;;;;;;20.40;70.10;;;;;;4117830;28;19931;-83
2023/08/21 08:56:59;;;;;;;;;;;20.40;70.40;;;;;;4117271;28;19922;-83
2023/08/21 08:59:00;;;;;;;;;;;20.50;70.20;;;;;;4122856;28;20377;-83
2023/08/21 09:01:00;;;;;;;;;;;20.50;70.30;;;;;;4120507;28;20405;-84
2023/08/21 09:03:01;;;;;;;;;;;20.60;70.20;;;;;;4117459;28;19929;-84
2023/08/21 09:05:02;;;;;;;;;;;20.60;69.80;;;;;;4124238;28;20293;-83
2023/08/21 09:07:05;;;;;;;;;;;20.70;68.50;;;;;;4117222;28;19933;-84
2023/08/21 09:09:07;;;;;;;;;;;20.70;69.10;;;;;;4108824;28;19922;-84
2023/08/21 09:11:07;;;;;;;;;;;20.80;68.20;;;;;;4112676;28;19929;-84
2023/08/21 09:13:09;;;;;;;;;;;20.80;68.10;;;;;;4119694;28;20231;-85
2023/08/21 09:15:09;;;;;;;;;;;20.90;68.30;;;;;;4113298;28;19922;-85
2023/08/21 09:17:10;;;;;;;;;;;21.00;68.20;;;;;;4119805;28;19920;-83
2023/08/21 09:19:20;;;;;;;;;;;21.00;67.80;;;;;;4124322;28;19925;-84
2023/08/21 09:21:22;;;;;;;;;;;21.00;67.50;;;;;;4121067;28;19928;-84
2023/08/21 09:23:22;;;;;;;;;;;21.00;66.80;;;;;;4116755;28;19964;-84
2023/08/21 09:25:24;;;;;;;;;;;21.10;66.30;;;;;;4122663;28;20398;-84
2023/08/21 09:27:24;;;;;;;;;;;21.00;66.20;;;;;;4116639;28;19918;-84
2023/08/21 09:29:25;;;;;;;;;;;21.10;65.70;;;;;;4119457;28;20276;-83
2023/08/21 09:31:32;;;;;;;;;;;21.10;65.90;;;;;;4115299;28;19921;-83
2023/08/21 09:33:33;;;;;;;;;;;21.10;65.80;;;;;;4117796;28;19918;-83
2023/08/21 09:35:34;;;;;;;;;;;21.10;65.10;;;;;;4117570;28;19925;-84
2023/08/21 09:37:35;;;;;;;;;;;21.10;65.40;;;;;;4116781;28;19918;-84
2023/08/21 09:39:36;;;;;;;;;;;21.10;64.40;;;;;;4119098;28;20402;-85
2023/08/21 09:41:38;;;;;;;;;;;21.10;64.90;;;;;;4119055;28;19925;-83
2023/08/21 09:43:42;;;;;;;;;;;21.20;65.20;;;;;;4117816;28;20411;-84
2023/08/21 09:45:47;;;;;;;;;;;21.20;65.20;;;;;;4116495;28;19918;-84
2023/08/21 09:47:58;;;;;;;;;;;21.20;65.40;;;;;;4131052;28;19945;-83
2023/08/21 09:50:02;;;;;;;;;;;21.20;65.10;;;;;;4111734;28;19961;-84
2023/08/21 09:52:04;;;;;;;;;;;21.20;65.50;;;;;;4105331;28;19928;-84
2023/08/21 09:54:06;;;;;;;;;;;21.30;65.10;;;;;;4111740;28;19918;-84
2023/08/21 09:56:08;;;;;;;;;;;21.30;65.40;;;;;;4120169;28;19918;-83
2023/08/21 09:58:10;;;;;;;;;;;21.30;65.00;;;;;;4100788;28;20494;-84
2023/08/21 10:00:20;;;;;;;;;;;21.40;65.20;;;;;;4111148;28;19921;-85
2023/08/21 10:02:34;;;;;;;;;;;21.40;65.10;;;;;;4113830;28;19995;-85
2023/08/21 10:07:37;;;;;;;;;;;21.50;65.50;;;;;;4101087;28;20013;-84
2023/08/21 10:09:39;;;;;;;;;;;21.60;63.90;;;;;;4113267;28;20075;-84
2023/08/21 10:11:40;;;;;;;;;;;21.70;64.40;;;;;;4119656;28;20277;-84
2023/08/21 10:13:40;;;;;;;;;;;21.70;63.60;;;;;;4113384;28;19944;-83
2023/08/21 10:15:41;;;;;;;;;;;21.70;63.60;;;;;;4118978;28;19961;-84
2023/08/21 10:17:43;;;;;;;;;;;21.80;63.00;;;;;;4117011;28;19918;-83
2023/08/21 10:19:50;;;;;;;;;;;21.80;62.90;;;;;;4110537;28;20009;-83
2023/08/21 10:21:55;;;;;;;;;;;21.90;61.50;;;;;;4100069;28;19918;-88
2023/08/21 10:23:56;;;;;;;;;;;22.00;61.70;;;;;;4103940;28;19957;-86
2023/08/21 10:26:00;;;;;;;;;;;22.00;61.60;;;;;;4109397;28;19925;-84
2023/08/21 10:28:03;;;;;;;;;;;22.00;61.10;;;;;;4114017;28;19926;-84
2023/08/21 10:30:11;;;;;;;;;;;22.00;60.80;;;;;;4107680;28;20044;-84
2023/08/21 10:32:12;;;;;;;;;;;22.10;61.30;;;;;;4114281;28;20168;-84
2023/08/21 10:34:13;;;;;;;;;;;22.20;61.20;;;;;;4118114;28;20028;-84
2023/08/21 10:36:13;;;;;;;;;;;22.20;61.30;;;;;;4111491;28;19949;-83
2023/08/21 10:38:17;;;;;;;;;;;22.30;61.00;;;;;;4116653;28;21478;-83
2023/08/21 10:40:22;;;;;;;;;;;22.30;61.10;;;;;;4120800;28;20380;-84
2023/08/21 10:42:39;;;;;;;;;;;22.40;60.60;;;;;;4118171;28;19922;-83
2023/08/21 10:44:42;;;;;;;;;;;22.50;61.60;;;;;;4112049;28;19929;-84
2023/08/21 10:46:52;;;;;;;;;;;22.50;58.90;;;;;;4115166;28;20392;-85
2023/08/21 10:48:53;;;;;;;;;;;22.60;60.50;;;;;;4108871;28;19922;-86
2023/08/21 10:50:54;;;;;;;;;;;22.70;59.50;;;;;;4107491;28;20254;-84
2023/08/21 10:52:54;;;;;;;;;;;22.60;56.70;;;;;;4114183;28;19983;-84
2023/08/21 10:54:56;;;;;;;;;;;22.70;56.50;;;;;;4108921;28;19925;-84
2023/08/21 10:57:14;;;;;;;;;;;22.70;56.10;;;;;;4110283;28;19918;-85
2023/08/21 10:59:14;;;;;;;;;;;22.70;56.60;;;;;;4115451;28;19926;-85
2023/08/21 11:01:15;;;;;;;;;;;22.70;56.20;;;;;;4113794;28;20005;-85
2023/08/21 11:03:16;;;;;;;;;;;22.60;56.70;;;;;;4107591;28;19926;-84
2023/08/21 11:05:16;;;;;;;;;;;22.70;57.00;;;;;;4110742;28;20033;-85
2023/08/21 11:07:17;;;;;;;;;;;22.60;57.00;;;;;;4120022;28;19922;-85
2023/08/21 11:09:18;;;;;;;;;;;22.60;57.50;;;;;;4113535;28;19921;-85
2023/08/21 11:11:19;;;;;;;;;;;22.70;56.70;;;;;;4113686;28;19964;-85
2023/08/21 11:13:22;;;;;;;;;;;22.70;57.00;;;;;;4112194;28;19917;-86
2023/08/21 11:15:24;;;;;;;;;;;22.70;57.10;;;;;;4113338;28;19926;-85
2023/08/21 11:17:24;;;;;;;;;;;22.70;57.10;;;;;;4109902;28;19981;-87
2023/08/21 11:19:25;;;;;;;;;;;22.70;57.30;;;;;;4112741;28;19921;-84
2023/08/21 11:21:31;;;;;;;;;;;22.80;56.80;;;;;;4111459;28;19960;-85
2023/08/21 11:23:42;;;;;;;;;;;22.80;58.10;;;;;;4111829;28;19918;-85
2023/08/21 11:25:56;;;;;;;;;;;22.80;57.10;;;;;;4111785;28;21027;-85
2023/08/21 11:27:58;;;;;;;;;;;22.80;57.10;;;;;;4117983;28;20895;-85
2023/08/21 11:30:18;;;;;;;;;;;22.80;56.40;;;;;;4110682;28;19913;-87
2023/08/21 11:32:22;;;;;;;;;;;22.90;56.20;;;;;;4112022;28;19929;-86
2023/08/21 11:34:46;;;;;;;;;;;22.90;56.70;;;;;;4116041;28;19918;-85
2023/08/21 11:37:07;;;;;;;;;;;22.90;56.20;;;;;;4118731;28;20305;-85
2023/08/21 11:39:11;;;;;;;;;;;23.00;56.80;;;;;;4120499;28;19930;-86
2023/08/21 11:41:32;;;;;;;;;;;23.00;56.20;;;;;;4127281;28;19921;-87
2023/08/21 11:43:44;;;;;;;;;;;23.00;54.80;;;;;;4119652;28;19918;-86
2023/08/21 11:46:05;;;;;;;;;;;23.10;56.00;;;;;;4115098;28;19917;-85
2023/08/21 11:48:25;;;;;;;;;;;23.10;56.00;;;;;;4114358;28;19917;-86
2023/08/21 11:50:47;;;;;;;;;;;23.10;55.30;;;;;;4111825;28;20040;-88
2023/08/21 11:53:08;;;;;;;;;;;23.10;55.60;;;;;;4113088;28;19918;-85
2023/08/21 11:55:29;;;;;;;;;;;23.20;55.60;;;;;;4113443;28;19929;-86
2023/08/21 11:57:50;;;;;;;;;;;23.10;55.00;;;;;;4115070;28;19937;-86
2023/08/21 12:00:11;;;;;;;;;;;23.20;55.60;;;;;;4113736;28;19925;-87
2023/08/21 12:02:32;;;;;;;;;;;23.30;55.50;;;;;;4108340;28;19925;-86
2023/08/21 12:04:32;;;;;;;;;;;23.30;55.70;;;;;;4109595;28;19922;-84
2023/08/21 12:06:33;;;;;;;;;;;23.40;55.00;;;;;;4111065;28;20148;-85
2023/08/21 12:08:34;;;;;;;;;;;23.40;55.40;;;;;;4113253;28;19941;-85
2023/08/21 12:10:35;;;;;;;;;;;23.50;55.30;;;;;;4110027;28;19918;-85
2023/08/21 12:12:36;;;;;;;;;;;23.50;55.10;;;;;;4111262;28;19980;-85
2023/08/21 12:14:39;;;;;;;;;;;23.60;54.90;;;;;;4114198;28;19926;-85
2023/08/21 12:16:39;;;;;;;;;;;23.60;54.60;;;;;;4110335;28;19918;-87
2023/08/21 12:18:40;;;;;;;;;;;23.60;54.10;;;;;;4115702;28;19922;-86
2023/08/21 12:20:41;;;;;;;;;;;23.60;54.00;;;;;;4109604;28;19996;-85
2023/08/21 12:22:44;;;;;;;;;;;23.70;53.50;;;;;;4113421;28;19928;-84
2023/08/21 12:24:45;;;;;;;;;;;23.60;53.80;;;;;;4108483;28;19922;-85
2023/08/21 12:26:46;;;;;;;;;;;23.60;53.90;;;;;;4110210;28;20012;-85
2023/08/21 12:28:47;;;;;;;;;;;23.60;53.70;;;;;;4114153;28;19918;-85
2023/08/21 12:30:48;;;;;;;;;;;23.60;53.70;;;;;;4114901;28;19922;-84
2023/08/21 12:32:48;;;;;;;;;;;23.50;53.90;;;;;;4105382;28;19924;-85
2023/08/21 12:34:49;;;;;;;;;;;23.50;53.90;;;;;;4109231;28;19928;-85